Time;durP1;ratioP1;P1;durP2;ratioP2;P2;SDS_P1;SDS_P2;PMS_P1;PMS_P2;Temp;Humidity;BMP_temperature;BMP_pressure;BME280_temperature;BME280_humidity;BME280_pressure;Samples;Min_cycle;Max_cycle;Signal;HPM_P1;HPM_P2
2023/07/16 00:02:42;;;;;;;5.32;2.85;;;;;;;18.11;100.00;100632.47;5009567;28;20132;-72
2023/07/16 00:05:28;;;;;;;6.97;2.67;;;;;;;18.09;100.00;100640.09;5008944;28;20045;-71
2023/07/16 00:08:13;;;;;;;8.18;3.30;;;;;;;17.99;100.00;100636.66;5012028;28;20057;-71
2023/07/16 00:10:59;;;;;;;8.25;4.18;;;;;;;18.05;100.00;100643.41;5014798;28;20076;-72
2023/07/16 00:13:47;;;;;;;8.60;3.15;;;;;;;17.97;100.00;100641.50;5009169;28;20078;-70
2023/07/16 00:16:33;;;;;;;9.43;3.63;;;;;;;17.94;100.00;100639.97;5001999;28;20826;-70
2023/07/16 00:19:19;;;;;;;7.22;2.83;;;;;;;18.03;100.00;100637.19;4993789;28;20053;-71
2023/07/16 00:22:05;;;;;;;9.40;2.92;;;;;;;17.86;100.00;100641.84;5007455;28;20050;-71
2023/07/16 00:24:50;;;;;;;12.27;3.20;;;;;;;17.88;100.00;100648.09;5010378;28;20038;-71
2023/07/16 00:27:36;;;;;;;12.80;3.30;;;;;;;17.85;100.00;100651.19;4989938;28;20050;-71
2023/07/16 00:30:22;;;;;;;7.50;2.80;;;;;;;17.74;100.00;100650.50;5014745;28;20065;-70
2023/07/16 00:33:07;;;;;;;10.05;3.42;;;;;;;17.75;100.00;100641.16;5004505;28;20072;-71
2023/07/16 00:35:53;;;;;;;8.73;3.47;;;;;;;17.61;100.00;100648.25;5008924;28;20133;-71
2023/07/16 00:38:40;;;;;;;7.30;3.17;;;;;;;17.72;100.00;100652.56;5008114;28;20042;-72
2023/07/16 00:41:25;;;;;;;4.68;3.20;;;;;;;17.66;100.00;100647.75;5011829;28;20057;-71
2023/07/16 00:44:11;;;;;;;8.20;3.20;;;;;;;17.69;100.00;100647.38;5006716;28;20409;-71
2023/07/16 00:46:57;;;;;;;7.45;3.22;;;;;;;17.57;100.00;100655.16;5006188;28;20056;-71
2023/07/16 00:49:43;;;;;;;7.05;3.40;;;;;;;17.63;100.00;100642.56;5013093;28;20116;-69
2023/07/16 00:52:29;;;;;;;6.50;3.33;;;;;;;17.49;100.00;100649.63;5015248;28;20141;-70
2023/07/16 00:55:16;;;;;;;8.35;3.35;;;;;;;17.47;100.00;100648.09;5012738;28;20041;-70
2023/07/16 00:58:05;;;;;;;10.35;3.70;;;;;;;17.53;100.00;100656.56;5008141;28;20030;-69
2023/07/16 01:00:50;;;;;;;6.55;3.67;;;;;;;17.52;100.00;100660.34;5008167;28;20076;-71
2023/07/16 01:03:36;;;;;;;10.13;3.97;;;;;;;17.52;100.00;100654.81;5009511;28;20118;-71
2023/07/16 01:06:35;;;;;;;10.15;3.53;;;;;;;17.54;100.00;100647.19;5007707;28;20504;-72
2023/07/16 01:09:22;;;;;;;15.55;3.75;;;;;;;17.54;100.00;100658.28;5024404;28;20034;-69
2023/07/16 01:12:09;;;;;;;10.48;4.43;;;;;;;17.49;100.00;100646.00;5009871;28;20046;-71
2023/07/16 01:14:56;;;;;;;12.23;3.97;;;;;;;17.46;100.00;100647.19;4996315;28;20109;-71
2023/07/16 01:17:42;;;;;;;12.15;3.63;;;;;;;17.44;100.00;100652.91;5005554;28;20400;-71
2023/07/16 01:20:27;;;;;;;8.73;3.78;;;;;;;17.39;100.00;100655.31;5007936;28;20109;-69
2023/07/16 01:23:28;;;;;;;11.80;3.58;;;;;;;17.43;100.00;100650.31;5010040;28;20128;-69
2023/07/16 01:26:36;;;;;;;11.82;3.97;;;;;;;17.32;100.00;100656.19;5008678;28;20035;-70
2023/07/16 01:29:57;;;;;;;4.55;3.00;;;;;;;17.30;100.00;100658.25;5009490;28;20095;-70
2023/07/16 01:32:45;;;;;;;7.00;4.07;;;;;;;17.27;100.00;100652.03;5003866;28;20110;-71
2023/07/16 01:35:33;;;;;;;6.80;3.47;;;;;;;17.27;100.00;100646.50;4998320;28;20117;-70
2023/07/16 01:38:20;;;;;;;10.07;3.50;;;;;;;17.16;100.00;100649.56;5005076;28;20417;-70
2023/07/16 01:41:06;;;;;;;8.18;3.17;;;;;;;17.11;100.00;100651.13;4991317;28;20039;-70
2023/07/16 01:43:52;;;;;;;10.50;3.90;;;;;;;17.13;100.00;100657.34;5007298;28;20115;-70
2023/07/16 01:46:38;;;;;;;5.97;3.88;;;;;;;17.08;100.00;100655.09;5002000;28;20097;-69
2023/07/16 01:49:23;;;;;;;9.35;3.80;;;;;;;17.06;100.00;100654.41;5010688;28;20041;-70
2023/07/16 01:52:09;;;;;;;12.07;3.95;;;;;;;16.94;100.00;100656.63;5004419;28;20053;-70
2023/07/16 01:54:55;;;;;;;8.13;3.85;;;;;;;16.90;100.00;100660.75;5009152;28;20038;-70
2023/07/16 01:57:40;;;;;;;10.85;4.47;;;;;;;16.87;100.00;100661.06;5006976;28;20057;-70
2023/07/16 02:00:26;;;;;;;6.30;3.72;;;;;;;16.81;100.00;100659.81;5009140;28;20089;-70
2023/07/16 02:03:12;;;;;;;10.57;4.47;;;;;;;16.76;100.00;100655.81;4972080;28;20541;-70
2023/07/16 02:05:58;;;;;;;13.20;4.20;;;;;;;16.78;100.00;100659.31;5014007;28;20061;-70
2023/07/16 02:08:43;;;;;;;9.75;5.22;;;;;;;16.66;100.00;100665.13;5014120;28;20125;-69
2023/07/16 02:11:29;;;;;;;8.98;4.53;;;;;;;16.70;100.00;100669.28;4994446;28;20054;-71
2023/07/16 02:14:15;;;;;;;8.38;4.15;;;;;;;16.65;100.00;100665.28;5009323;28;20060;-69
2023/07/16 02:17:01;;;;;;;11.23;4.50;;;;;;;16.64;100.00;100669.97;4996423;28;20034;-70
2023/07/16 02:19:47;;;;;;;12.63;4.65;;;;;;;16.61;100.00;100670.28;5002806;28;20045;-71
2023/07/16 02:22:35;;;;;;;11.90;5.13;;;;;;;16.61;100.00;100673.06;5005752;28;20041;-70
2023/07/16 02:25:20;;;;;;;11.27;4.72;;;;;;;16.54;100.00;100674.72;5001649;28;20077;-70
2023/07/16 02:28:06;;;;;;;7.57;4.65;;;;;;;16.61;100.00;100677.69;5003815;28;20042;-70
2023/07/16 02:30:52;;;;;;;13.90;4.82;;;;;;;16.67;100.00;100672.38;5010632;28;20078;-70
2023/07/16 02:33:37;;;;;;;8.02;4.50;;;;;;;16.68;100.00;100667.72;5008895;28;20046;-70
2023/07/16 02:36:23;;;;;;;7.47;4.78;;;;;;;16.67;100.00;100669.59;5000373;28;20137;-70
2023/07/16 02:39:09;;;;;;;10.75;3.95;;;;;;;16.62;100.00;100668.38;5001221;28;20034;-70
2023/07/16 02:41:54;;;;;;;11.43;4.18;;;;;;;16.53;100.00;100675.78;5008569;28;20111;-70
2023/07/16 02:44:44;;;;;;;11.15;4.50;;;;;;;16.50;100.00;100676.09;4998914;28;20125;-70
2023/07/16 02:47:30;;;;;;;11.05;3.80;;;;;;;16.45;100.00;100672.97;5005732;28;20076;-70
2023/07/16 02:50:16;;;;;;;13.57;3.90;;;;;;;16.43;100.00;100680.53;5005242;28;20049;-71
2023/07/16 02:53:03;;;;;;;16.58;3.65;;;;;;;16.40;100.00;100678.09;5007915;28;20049;-70
2023/07/16 02:55:48;;;;;;;8.90;4.10;;;;;;;16.38;100.00;100678.28;5010538;28;20088;-71
2023/07/16 02:58:34;;;;;;;5.63;2.58;;;;;;;16.34;100.00;100680.50;4990558;28;20042;-72
2023/07/16 03:01:20;;;;;;;11.55;3.05;;;;;;;16.30;100.00;100690.16;5010554;28;20085;-70
2023/07/16 03:04:06;;;;;;;13.85;2.85;;;;;;;16.27;100.00;100682.19;5016630;28;20066;-71
2023/07/16 03:06:52;;;;;;;7.75;2.60;;;;;;;16.27;100.00;100679.44;5015397;28;20054;-70
2023/07/16 03:09:37;;;;;;;6.63;2.72;;;;;;;16.22;100.00;100686.47;4985232;28;20428;-70
2023/07/16 03:12:23;;;;;;;7.57;2.45;;;;;;;16.11;100.00;100684.84;5011385;28;20042;-71
2023/07/16 03:15:09;;;;;;;8.93;2.97;;;;;;;16.12;100.00;100687.44;4976418;28;20045;-71
2023/07/16 03:17:55;;;;;;;11.85;2.83;;;;;;;16.05;100.00;100677.19;5012770;28;20084;-70
2023/07/16 03:20:41;;;;;;;13.10;2.97;;;;;;;15.97;100.00;100684.41;4999650;28;20124;-70
2023/07/16 03:23:26;;;;;;;7.85;2.78;;;;;;;15.98;100.00;100693.56;4981234;28;20077;-71
2023/07/16 03:26:12;;;;;;;11.13;2.53;;;;;;;15.99;100.00;100696.16;5013856;28;20081;-70
2023/07/16 03:28:58;;;;;;;12.98;3.05;;;;;;;15.95;100.00;100694.75;5014239;28;20163;-71
2023/07/16 03:31:43;;;;;;;10.98;2.75;;;;;;;15.83;100.00;100690.50;4999762;28;20123;-70
2023/07/16 03:34:29;;;;;;;9.35;2.85;;;;;;;15.83;100.00;100692.41;4985688;28;20045;-71
2023/07/16 03:37:15;;;;;;;8.98;3.10;;;;;;;15.78;100.00;100695.63;5008459;28;20034;-70
2023/07/16 03:40:17;;;;;;;11.00;3.08;;;;;;;15.80;100.00;100697.19;5010140;28;20481;-70
2023/07/16 03:43:02;;;;;;;9.35;2.67;;;;;;;15.73;100.00;100693.31;5016800;28;20493;-70
2023/07/16 03:45:49;;;;;;;9.68;2.67;;;;;;;15.84;100.00;100700.53;5001506;28;20621;-70
2023/07/16 03:48:36;;;;;;;7.05;2.58;;;;;;;15.71;100.00;100708.28;5002342;28;20042;-70
2023/07/16 03:51:21;;;;;;;14.38;2.95;;;;;;;15.74;100.00;100716.25;5009226;28;20038;-71
2023/07/16 03:54:07;;;;;;;12.73;3.45;;;;;;;15.69;100.00;100721.38;5015165;28;20048;-71
2023/07/16 03:56:53;;;;;;;8.15;3.97;;;;;;;15.64;100.00;100713.56;4997957;28;20046;-71
2023/07/16 03:59:38;;;;;;;8.98;3.22;;;;;;;15.68;100.00;100736.25;5011171;28;20038;-71
2023/07/16 04:02:24;;;;;;;7.63;2.47;;;;;;;15.67;100.00;100734.50;5011219;28;20095;-70
2023/07/16 04:05:10;;;;;;;13.98;3.35;;;;;;;15.68;100.00;100736.25;4996713;28;20124;-70
2023/07/16 04:07:56;;;;;;;11.52;2.92;;;;;;;15.64;100.00;100735.66;5010500;28;20477;-70
2023/07/16 04:10:41;;;;;;;13.95;3.80;;;;;;;15.67;100.00;100740.00;5007114;28;20046;-71
2023/07/16 04:13:27;;;;;;;8.55;2.92;;;;;;;15.68;100.00;100750.91;4983179;28;20456;-70
2023/07/16 04:16:13;;;;;;;8.88;3.45;;;;;;;15.67;100.00;100745.53;4998561;28;20128;-71
2023/07/16 04:18:58;;;;;;;9.65;3.17;;;;;;;15.64;100.00;100752.22;5009325;28;20108;-71
2023/07/16 04:21:44;;;;;;;11.38;3.42;;;;;;;15.60;100.00;100753.56;5012284;28;20100;-70
2023/07/16 04:24:30;;;;;;;14.93;4.80;;;;;;;15.67;100.00;100757.44;5010342;28;20559;-71
2023/07/16 04:27:16;;;;;;;14.18;3.92;;;;;;;15.66;100.00;100752.06;4995519;28;20050;-71
2023/07/16 04:30:02;;;;;;;18.25;3.90;;;;;;;15.67;100.00;100753.81;5011721;28;20038;-70
2023/07/16 04:32:48;;;;;;;14.05;3.72;;;;;;;15.70;100.00;100756.25;5010843;28;20113;-71
2023/07/16 04:35:34;;;;;;;13.20;4.05;;;;;;;15.65;100.00;100769.66;5009232;28;20041;-71
2023/07/16 04:38:19;;;;;;;13.85;3.88;;;;;;;15.62;100.00;100770.84;5005592;28;20467;-70
2023/07/16 04:41:05;;;;;;;9.20;3.45;;;;;;;15.56;100.00;100772.34;4978596;28;20041;-72
2023/07/16 04:43:51;;;;;;;16.45;4.22;;;;;;;15.64;100.00;100779.81;5001956;28;20103;-71
2023/07/16 04:46:36;;;;;;;14.30;3.67;;;;;;;15.62;100.00;100782.75;5004180;28;20515;-71
2023/07/16 04:49:22;;;;;;;12.60;3.50;;;;;;;15.62;100.00;100779.97;5004489;28;20046;-70
2023/07/16 04:52:08;;;;;;;20.00;4.13;;;;;;;15.69;100.00;100779.34;5004690;28;20428;-71
2023/07/16 04:54:53;;;;;;;22.52;4.07;;;;;;;15.72;100.00;100776.28;5004503;28;20149;-70
2023/07/16 04:57:39;;;;;;;13.57;3.60;;;;;;;15.68;100.00;100777.66;4993721;28;20496;-70
2023/07/16 05:00:25;;;;;;;25.73;4.40;;;;;;;15.80;100.00;100790.22;5001605;28;20049;-70
2023/07/16 05:03:11;;;;;;;11.50;4.20;;;;;;;15.66;100.00;100793.47;5011504;28;20112;-71
2023/07/16 05:05:56;;;;;;;13.50;4.15;;;;;;;15.86;100.00;100795.09;5011500;28;20034;-71
2023/07/16 05:08:42;;;;;;;17.00;4.25;;;;;;;15.79;100.00;100797.63;5000782;28;20038;-70
2023/07/16 05:11:28;;;;;;;20.05;4.82;;;;;;;15.89;100.00;100800.31;4991205;28;20145;-70
2023/07/16 05:14:13;;;;;;;12.52;4.20;;;;;;;15.92;100.00;100800.00;4991102;28;21864;-70
2023/07/16 05:16:59;;;;;;;10.30;4.53;;;;;;;16.05;100.00;100801.47;5009262;28;20061;-71
2023/07/16 05:19:45;;;;;;;12.05;3.78;;;;;;;16.19;100.00;100805.59;5008153;28;20389;-70
2023/07/16 05:22:30;;;;;;;11.75;4.03;;;;;;;16.32;100.00;100803.28;5010626;28;20827;-72
2023/07/16 05:25:16;;;;;;;9.00;3.53;;;;;;;16.30;100.00;100813.63;5001934;28;20136;-71
2023/07/16 05:28:02;;;;;;;8.98;4.05;;;;;;;16.49;100.00;100813.41;5019137;28;20049;-69
2023/07/16 05:30:48;;;;;;;14.55;4.28;;;;;;;16.46;100.00;100816.53;4984326;28;20113;-70
2023/07/16 05:33:33;;;;;;;9.90;3.38;;;;;;;16.48;100.00;100820.00;5005687;28;20042;-70
2023/07/16 05:36:20;;;;;;;16.30;4.47;;;;;;;16.86;100.00;100820.63;4998826;28;20109;-69
2023/07/16 05:39:05;;;;;;;12.82;4.40;;;;;;;16.90;100.00;100826.69;5010271;28;20346;-69
2023/07/16 05:41:51;;;;;;;8.90;4.22;;;;;;;17.05;100.00;100832.47;5010419;28;20116;-69
2023/07/16 05:44:37;;;;;;;14.00;4.53;;;;;;;17.01;100.00;100829.19;4991132;28;20050;-70
2023/07/16 05:47:22;;;;;;;13.18;4.28;;;;;;;17.43;100.00;100824.69;5011997;28;20044;-70
2023/07/16 05:50:08;;;;;;;10.05;4.22;;;;;;;17.80;100.00;100827.06;5009984;28;20472;-70
2023/07/16 05:52:54;;;;;;;13.43;4.20;;;;;;;17.92;100.00;100827.66;5004599;28;20042;-70
2023/07/16 05:55:40;;;;;;;11.68;3.97;;;;;;;17.92;100.00;100827.66;5006457;28;20038;-70
2023/07/16 05:58:26;;;;;;;11.25;4.05;;;;;;;18.00;100.00;100832.31;5017273;28;20045;-70
2023/07/16 06:01:12;;;;;;;14.38;4.30;;;;;;;18.07;100.00;100835.28;5003627;28;20073;-70
2023/07/16 06:03:57;;;;;;;15.43;4.53;;;;;;;18.10;100.00;100840.47;5004318;28;20042;-70
2023/07/16 06:06:43;;;;;;;21.27;6.20;;;;;;;18.42;100.00;100845.19;5012395;28;20069;-69
2023/07/16 06:09:29;;;;;;;12.80;3.67;;;;;;;18.07;100.00;100847.25;5012661;28;20513;-69
2023/07/16 06:12:15;;;;;;;15.40;4.03;;;;;;;18.43;100.00;100854.34;5008851;28;20108;-70
2023/07/16 06:15:01;;;;;;;9.82;4.05;;;;;;;18.39;100.00;100855.75;5007898;28;20107;-70
2023/07/16 06:17:46;;;;;;;13.93;4.22;;;;;;;18.56;100.00;100857.47;5004234;28;20037;-70
2023/07/16 06:20:32;;;;;;;14.00;4.43;;;;;;;18.75;100.00;100870.13;5007491;28;20046;-70
2023/07/16 06:23:18;;;;;;;9.32;4.30;;;;;;;18.72;100.00;100862.16;4999841;28;20052;-70
2023/07/16 06:26:04;;;;;;;15.18;3.65;;;;;;;18.61;100.00;100873.59;5007371;28;20042;-70
2023/07/16 06:28:49;;;;;;;16.10;5.10;;;;;;;18.59;100.00;100865.44;5007584;28;20519;-70
2023/07/16 06:31:36;;;;;;;15.85;4.65;;;;;;;18.76;100.00;100870.97;5002306;28;20408;-71
2023/07/16 06:34:22;;;;;;;8.07;4.30;;;;;;;19.13;100.00;100877.91;5005400;28;20034;-70
2023/07/16 06:37:08;;;;;;;11.30;4.65;;;;;;;18.93;100.00;100872.72;5004242;28;20058;-70
2023/07/16 06:39:53;;;;;;;15.02;4.72;;;;;;;19.22;100.00;100874.06;5003468;28;20121;-69
2023/07/16 06:42:39;;;;;;;13.98;4.32;;;;;;;19.14;100.00;100886.06;5008075;28;20053;-70
2023/07/16 06:45:25;;;;;;;16.83;5.88;;;;;;;19.42;100.00;100878.16;5015449;28;20049;-69
2023/07/16 06:48:11;;;;;;;19.67;5.68;;;;;;;19.73;100.00;100880.13;5011645;28;20054;-69
2023/07/16 06:50:57;;;;;;;20.63;5.47;;;;;;;19.44;100.00;100894.63;4996518;28;20041;-70
2023/07/16 06:53:42;;;;;;;16.63;5.28;;;;;;;19.29;100.00;100888.97;5013762;28;20122;-69
2023/07/16 06:56:28;;;;;;;16.15;5.13;;;;;;;19.59;100.00;100897.53;4966985;28;20050;-70
2023/07/16 06:59:14;;;;;;;22.40;5.97;;;;;;;19.65;100.00;100885.72;5018832;28;20489;-71
2023/07/16 07:02:00;;;;;;;14.27;5.13;;;;;;;19.75;100.00;100886.38;5006736;28;20493;-70
2023/07/16 07:04:45;;;;;;;18.23;6.25;;;;;;;19.51;100.00;100898.41;5001986;28;20047;-70
2023/07/16 07:07:31;;;;;;;18.92;6.03;;;;;;;19.86;100.00;100899.00;5007313;28;20155;-71
2023/07/16 07:10:17;;;;;;;17.30;5.30;;;;;;;19.70;100.00;100899.91;5007140;28;20106;-71
2023/07/16 07:13:02;;;;;;;15.77;5.85;;;;;;;20.41;98.91;100897.09;5009835;28;20484;-71
2023/07/16 07:15:48;;;;;;;20.52;6.10;;;;;;;20.25;100.00;100902.78;5005028;28;20038;-73
2023/07/16 07:18:34;;;;;;;22.98;5.78;;;;;;;20.33;100.00;100908.28;5003180;28;20041;-71
2023/07/16 07:21:19;;;;;;;11.98;5.22;;;;;;;19.92;100.00;100898.31;5009117;28;20050;-72
2023/07/16 07:24:05;;;;;;;19.10;6.30;;;;;;;20.50;98.91;100898.78;5005598;28;20042;-71
2023/07/16 07:26:51;;;;;;;17.00;6.07;;;;;;;20.48;100.00;100897.22;5008462;28;20038;-71
2023/07/16 07:29:37;;;;;;;17.13;5.80;;;;;;;20.53;98.56;100894.75;5002834;28;20041;-71
2023/07/16 07:32:22;;;;;;;14.10;5.30;;;;;;;20.62;98.85;100890.00;5008604;28;20084;-71
2023/07/16 07:35:08;;;;;;;19.40;5.53;;;;;;;20.71;96.99;100886.97;5011120;28;20523;-71
2023/07/16 07:37:54;;;;;;;14.52;5.68;;;;;;;21.43;94.06;100895.81;5008844;28;20390;-71
2023/07/16 07:40:42;;;;;;;14.85;6.10;;;;;;;20.98;95.78;100893.00;5005944;28;20093;-72
2023/07/16 07:43:28;;;;;;;14.60;5.78;;;;;;;21.19;94.68;100891.41;5005892;28;20172;-72
2023/07/16 07:46:14;;;;;;;15.55;5.03;;;;;;;20.98;93.60;100897.69;4995738;28;20054;-71
2023/07/16 07:49:00;;;;;;;19.92;6.15;;;;;;;21.63;91.30;100891.44;4997540;28;20045;-72
2023/07/16 07:51:47;;;;;;;12.30;5.18;;;;;;;21.69;90.66;100900.06;5007061;28;20084;-71
2023/07/16 07:54:33;;;;;;;12.13;5.15;;;;;;;21.53;91.16;100902.00;5008346;28;20057;-72
2023/07/16 07:57:19;;;;;;;16.25;6.30;;;;;;;21.52;89.89;100894.69;5006792;28;20378;-71
2023/07/16 08:00:06;;;;;;;15.15;5.60;;;;;;;21.56;90.79;100904.41;5005343;28;20042;-72
2023/07/16 08:02:52;;;;;;;12.90;5.05;;;;;;;22.01;89.43;100905.19;5012329;28;20120;-72
2023/07/16 08:05:38;;;;;;;15.38;5.43;;;;;;;21.34;91.60;100908.97;5008149;28;20052;-74
2023/07/16 08:08:23;;;;;;;22.67;5.72;;;;;;;21.88;89.25;100913.41;4999838;28;20056;-71
2023/07/16 08:11:09;;;;;;;19.20;5.68;;;;;;;21.67;89.67;100912.25;5009334;28;20110;-72
2023/07/16 08:13:55;;;;;;;14.65;5.03;;;;;;;22.02;88.22;100915.31;5002688;28;20058;-72
2023/07/16 08:16:40;;;;;;;15.07;5.68;;;;;;;21.21;92.23;100925.47;5018301;28;20065;-72
2023/07/16 08:19:26;;;;;;;12.75;4.55;;;;;;;22.04;87.92;100920.69;5011091;28;20038;-71
2023/07/16 08:22:12;;;;;;;16.50;5.63;;;;;;;22.37;85.38;100918.31;5005974;28;20038;-72
2023/07/16 08:24:58;;;;;;;18.00;5.22;;;;;;;22.83;82.01;100925.41;5010617;28;20488;-73
2023/07/16 08:27:43;;;;;;;19.10;4.97;;;;;;;22.07;83.89;100920.31;4999189;28;20038;-72
2023/07/16 08:30:29;;;;;;;16.00;5.35;;;;;;;22.14;85.64;100914.81;4997970;28;20114;-71
2023/07/16 08:33:15;;;;;;;13.85;4.53;;;;;;;22.48;84.72;100919.72;5006928;28;20069;-72
2023/07/16 08:36:01;;;;;;;16.40;4.70;;;;;;;22.61;80.52;100913.38;4996211;28;20053;-71
2023/07/16 08:38:46;;;;;;;12.45;4.72;;;;;;;22.33;82.55;100918.91;5010100;28;20121;-71
2023/07/16 08:41:32;;;;;;;23.75;5.07;;;;;;;22.75;81.04;100929.22;5009563;28;20050;-72
2023/07/16 08:44:19;;;;;;;11.57;5.18;;;;;;;23.00;79.63;100936.31;5012157;28;20080;-72
2023/07/16 08:47:05;;;;;;;9.40;4.53;;;;;;;23.09;77.04;100936.00;5009039;28;20045;-73
2023/07/16 08:49:58;;;;;;;11.40;4.53;;;;;;;22.53;79.77;100942.31;5010237;28;20575;-72
2023/07/16 08:52:44;;;;;;;10.05;4.18;;;;;;;22.78;77.38;100938.28;5002975;28;20041;-71
2023/07/16 08:55:30;;;;;;;13.88;4.75;;;;;;;23.15;78.22;100939.88;4981318;28;20042;-71
2023/07/16 08:58:16;;;;;;;20.63;4.97;;;;;;;22.80;79.33;100931.41;5010914;28;20038;-73
2023/07/16 09:01:03;;;;;;;11.40;4.60;;;;;;;22.99;76.84;100940.16;5006294;28;20041;-72
2023/07/16 09:03:49;;;;;;;12.07;4.75;;;;;;;22.98;77.23;100933.72;5004466;28;20449;-72
2023/07/16 09:06:34;;;;;;;16.30;4.70;;;;;;;23.10;77.44;100942.44;5002954;28;20041;-73
2023/07/16 09:09:22;;;;;;;12.82;4.72;;;;;;;22.78;80.73;100936.34;5005154;28;20042;-72
2023/07/16 09:12:12;;;;;;;10.00;4.95;;;;;;;22.76;78.78;100944.06;5003360;28;20046;-72
2023/07/16 09:14:58;;;;;;;13.93;4.70;;;;;;;23.34;77.34;100948.66;5009985;28;20026;-72
2023/07/16 09:17:48;;;;;;;15.10;5.00;;;;;;;22.99;76.22;100942.94;5008307;28;20038;-71
2023/07/16 09:20:34;;;;;;;14.15;4.53;;;;;;;23.06;76.26;100947.53;5009164;28;20038;-72
2023/07/16 09:23:19;;;;;;;8.10;3.90;;;;;;;23.21;76.07;100953.06;5005657;28;20115;-71
2023/07/16 09:26:05;;;;;;;9.85;3.78;;;;;;;23.06;75.50;100943.88;5000959;28;20046;-71
2023/07/16 09:28:51;;;;;;;10.25;4.53;;;;;;;23.72;75.41;100939.88;5005741;28;20034;-72
2023/07/16 09:31:36;;;;;;;11.35;4.07;;;;;;;24.34;70.47;100950.06;5008966;28;20050;-71
2023/07/16 09:34:23;;;;;;;13.27;4.18;;;;;;;24.00;70.57;100951.00;4999637;28;20047;-73
2023/07/16 09:37:09;;;;;;;14.48;4.00;;;;;;;24.01;69.66;100945.22;4985849;28;20397;-72
2023/07/16 09:39:55;;;;;;;8.55;4.15;;;;;;;23.22;72.61;100957.59;4997175;28;20382;-71
2023/07/16 09:42:42;;;;;;;13.90;4.40;;;;;;;22.26;76.61;100957.84;4982340;28;20120;-71
2023/07/16 09:45:28;;;;;;;11.10;3.95;;;;;;;22.17;78.78;100953.47;5004765;28;20049;-71
2023/07/16 09:48:15;;;;;;;9.80;4.15;;;;;;;22.57;75.09;100959.53;5004994;28;20037;-72
2023/07/16 09:51:01;;;;;;;15.23;4.47;;;;;;;22.21;77.92;100958.44;5005853;28;20061;-71
2023/07/16 09:53:47;;;;;;;25.67;4.13;;;;;;;22.18;77.41;100967.19;4994482;28;20074;-70
2023/07/16 09:56:49;;;;;;;10.30;3.90;;;;;;;23.35;75.91;100964.34;5006522;28;20042;-71
2023/07/16 09:59:35;;;;;;;7.55;3.67;;;;;;;22.66;73.17;100980.69;4997704;28;20061;-70
2023/07/16 10:02:21;;;;;;;7.18;3.05;;;;;;;22.02;75.51;100975.78;4991572;28;20137;-73
2023/07/16 10:05:14;;;;;;;10.35;3.45;;;;;;;22.17;76.32;100982.22;4995612;28;20042;-73
2023/07/16 10:08:00;;;;;;;15.88;4.32;;;;;;;22.60;77.47;100977.81;4997837;28;20081;-70
2023/07/16 10:10:54;;;;;;;15.02;3.58;;;;;;;22.23;75.57;100983.34;4992200;28;20088;-71
2023/07/16 10:13:39;;;;;;;9.38;3.17;;;;;;;22.16;74.95;100985.19;5001842;28;20046;-71
2023/07/16 10:16:27;;;;;;;6.72;3.03;;;;;;;22.77;71.78;100979.25;5005861;28;20045;-70
2023/07/16 10:19:13;;;;;;;10.93;3.45;;;;;;;22.88;73.70;100989.91;5008695;28;20038;-72
2023/07/16 10:21:58;;;;;;;8.40;3.30;;;;;;;22.71;72.92;100994.91;5004378;28;20034;-69
2023/07/16 10:24:50;;;;;;;6.55;2.85;;;;;;;22.87;73.04;100993.75;4999781;28;20051;-69
2023/07/16 10:27:37;;;;;;;8.60;3.17;;;;;;;22.89;72.36;100997.22;5006128;28;20041;-70
2023/07/16 10:30:22;;;;;;;9.13;3.08;;;;;;;22.29;74.28;101002.13;5007945;28;20041;-70
2023/07/16 10:33:12;;;;;;;6.40;3.22;;;;;;;22.04;76.01;101007.13;5004781;28;20412;-69
2023/07/16 10:35:59;;;;;;;10.90;3.47;;;;;;;22.11;76.72;101010.88;5002027;28;20038;-69
2023/07/16 10:38:45;;;;;;;6.70;3.00;;;;;;;21.88;75.03;101012.91;5006276;28;20540;-70
2023/07/16 10:41:32;;;;;;;12.77;3.08;;;;;;;21.94;75.95;101006.53;5015103;28;20046;-69
2023/07/16 10:44:21;;;;;;;8.20;3.10;;;;;;;21.96;76.62;101010.03;5005040;28;20046;-69
2023/07/16 10:47:07;;;;;;;9.63;3.22;;;;;;;22.06;76.94;101006.94;5000998;28;20405;-69
2023/07/16 10:49:54;;;;;;;8.73;3.30;;;;;;;22.39;74.93;101012.97;5005964;28;20513;-69
2023/07/16 10:52:39;;;;;;;7.40;2.92;;;;;;;22.55;72.88;101021.13;4976362;28;20065;-69
2023/07/16 10:55:28;;;;;;;7.60;3.30;;;;;;;21.88;76.33;101033.28;5003240;28;20424;-70
2023/07/16 10:58:13;;;;;;;6.88;3.10;;;;;;;22.00;74.70;101025.28;5006984;28;20067;-69
2023/07/16 11:01:00;;;;;;;7.40;2.50;;;;;;;22.00;75.31;101028.09;5000030;28;20050;-70
2023/07/16 11:03:45;;;;;;;6.32;3.10;;;;;;;22.12;76.37;101028.47;4989676;28;20038;-69
2023/07/16 11:06:31;;;;;;;9.77;2.75;;;;;;;22.69;75.45;101029.63;5007176;28;20048;-70
2023/07/16 11:09:17;;;;;;;8.57;3.03;;;;;;;22.51;74.13;101033.75;5005839;28;20409;-70
2023/07/16 11:12:11;;;;;;;12.68;3.20;;;;;;;22.30;74.96;101026.19;5002599;28;21108;-69
2023/07/16 11:14:57;;;;;;;5.55;2.90;;;;;;;22.41;74.82;101026.72;4998197;28;20048;-71
2023/07/16 11:17:48;;;;;;;7.18;3.17;;;;;;;22.78;74.50;101027.63;5001755;28;20041;-70
2023/07/16 11:20:34;;;;;;;5.88;2.92;;;;;;;22.18;74.47;101039.69;5008324;28;20038;-70
2023/07/16 11:23:19;;;;;;;11.38;3.13;;;;;;;22.42;74.59;101032.13;4974449;28;20076;-70
2023/07/16 11:26:05;;;;;;;7.38;3.10;;;;;;;22.09;75.50;101040.03;4993633;28;20046;-70
2023/07/16 11:28:51;;;;;;;5.80;2.90;;;;;;;22.08;75.91;101039.13;5000870;28;20042;-69
2023/07/16 11:31:40;;;;;;;7.45;2.58;;;;;;;21.96;76.26;101024.81;5002619;28;20587;-69
2023/07/16 11:34:26;;;;;;;5.82;2.90;;;;;;;22.07;76.52;101051.38;4999957;28;20038;-71
2023/07/16 11:37:11;;;;;;;8.18;3.05;;;;;;;21.83;78.33;101053.38;5004090;28;20564;-70
2023/07/16 11:39:58;;;;;;;9.23;3.35;;;;;;;22.11;76.79;101060.22;5005767;28;20124;-70
2023/07/16 11:42:44;;;;;;;12.27;3.30;;;;;;;22.05;76.65;101061.84;5010290;28;20048;-70
2023/07/16 11:45:30;;;;;;;9.40;3.13;;;;;;;22.28;75.58;101058.94;4992673;28;20053;-71
2023/07/16 11:48:15;;;;;;;8.68;3.30;;;;;;;22.26;75.13;101054.63;5008195;28;20046;-71
2023/07/16 11:51:01;;;;;;;9.68;2.97;;;;;;;22.02;77.38;101059.44;5003757;28;20509;-71
2023/07/16 11:53:47;;;;;;;7.85;3.15;;;;;;;21.85;76.84;101070.75;4998536;28;20374;-71
2023/07/16 11:56:32;;;;;;;5.55;3.45;;;;;;;22.07;77.26;101061.66;5008030;28;20050;-70
2023/07/16 11:59:20;;;;;;;11.38;3.40;;;;;;;21.92;77.93;101070.00;5011550;28;20084;-72
2023/07/16 12:02:06;;;;;;;5.60;3.20;;;;;;;22.29;76.92;101059.84;5001443;28;20039;-71
2023/07/16 12:04:52;;;;;;;8.45;3.78;;;;;;;22.77;77.28;101068.59;5003336;28;20495;-71
2023/07/16 12:07:38;;;;;;;8.65;3.53;;;;;;;22.77;75.00;101065.81;5002985;28;20452;-71
2023/07/16 12:10:24;;;;;;;9.63;3.00;;;;;;;22.86;74.35;101064.63;5006257;28;20070;-71
2023/07/16 12:13:09;;;;;;;8.60;3.70;;;;;;;22.37;75.62;101066.19;5006727;28;20449;-73
2023/07/16 12:15:55;;;;;;;7.38;3.38;;;;;;;22.39;75.04;101066.84;4994841;28;20045;-74
2023/07/16 12:18:41;;;;;;;8.27;3.03;;;;;;;22.76;74.79;101064.09;5005051;28;20066;-73
2023/07/16 12:21:26;;;;;;;10.32;4.13;;;;;;;22.77;74.63;101076.97;5010620;28;20049;-72
2023/07/16 12:24:12;;;;;;;8.85;3.13;;;;;;;22.72;72.87;101077.56;5011280;28;20042;-72
2023/07/16 12:26:58;;;;;;;7.63;3.35;;;;;;;22.61;73.29;101066.91;5000015;28;20096;-72
2023/07/16 12:29:44;;;;;;;10.48;3.17;;;;;;;22.84;73.48;101079.84;5015095;28;20528;-72
2023/07/16 12:32:29;;;;;;;6.80;2.63;;;;;;;22.83;73.02;101080.94;5011453;28;20042;-72
2023/07/16 12:35:15;;;;;;;9.38;3.65;;;;;;;22.93;74.37;101064.72;5008549;28;20038;-72
2023/07/16 12:38:01;;;;;;;6.28;3.30;;;;;;;23.16;73.02;101081.31;5008376;28;20571;-72
2023/07/16 12:40:47;;;;;;;10.18;3.22;;;;;;;22.93;73.50;101076.75;5012638;28;20034;-72
2023/07/16 12:43:34;;;;;;;8.63;3.33;;;;;;;22.89;73.76;101075.41;4995020;28;20051;-71
2023/07/16 12:46:19;;;;;;;10.70;3.10;;;;;;;23.29;73.12;101087.03;5007305;28;20058;-72